createdAt,value
2019-01-13T00:00:18.870Z,0
2019-01-13T00:01:17.266Z,0
2019-01-13T00:02:17.247Z,0
2019-01-13T00:03:17.235Z,0
2019-01-13T00:04:17.228Z,0
2019-01-13T00:05:17.213Z,0
2019-01-13T00:06:17.197Z,0
2019-01-13T00:07:17.184Z,0
2019-01-13T00:08:17.173Z,0
2019-01-13T00:09:17.165Z,0
2019-01-13T00:10:17.147Z,0
2019-01-13T00:11:17.135Z,0
2019-01-13T00:12:17.165Z,0
2019-01-13T00:13:17.112Z,0
2019-01-13T00:14:17.397Z,0
2019-01-13T00:15:17.093Z,0
2019-01-13T00:16:17.076Z,0
2019-01-13T00:17:17.064Z,0
2019-01-13T00:18:17.049Z,0
2019-01-13T00:19:17.040Z,0
2019-01-13T00:20:17.031Z,0
2019-01-13T00:21:17.021Z,0
2019-01-13T00:22:17.001Z,0
2019-01-13T00:23:17.011Z,0
2019-01-13T00:24:16.983Z,0
2019-01-13T00:25:16.971Z,0
2019-01-13T00:26:16.967Z,0
2019-01-13T00:27:16.945Z,0
2019-01-13T00:28:16.942Z,0
2019-01-13T00:29:16.917Z,0
2019-01-13T00:30:23.901Z,0
2019-01-13T00:31:16.907Z,0
2019-01-13T00:32:16.883Z,0
2019-01-13T00:33:16.631Z,0
2019-01-13T00:34:16.864Z,0
2019-01-13T00:35:16.851Z,0
2019-01-13T00:36:16.844Z,0
2019-01-13T00:37:16.826Z,0
2019-01-13T00:38:16.815Z,0
2019-01-13T00:39:16.802Z,0
2019-01-13T00:40:16.798Z,0
2019-01-13T00:41:16.778Z,0
2019-01-13T00:42:16.768Z,0
2019-01-13T00:43:16.752Z,0
2019-01-13T00:44:16.736Z,0
2019-01-13T00:45:16.732Z,0
2019-01-13T00:46:16.741Z,0
2019-01-13T00:47:16.707Z,0
2019-01-13T00:48:16.689Z,0
2019-01-13T00:49:16.682Z,0
2019-01-13T00:50:16.668Z,0
2019-01-13T00:51:16.673Z,0
2019-01-13T00:52:16.645Z,0
2019-01-13T00:53:16.635Z,0
2019-01-13T00:54:16.621Z,0
2019-01-13T00:55:16.607Z,0
2019-01-13T00:56:16.609Z,0
2019-01-13T00:57:16.585Z,0
2019-01-13T00:58:16.569Z,0
2019-01-13T00:59:16.567Z,0
2019-01-13T01:00:16.547Z,0
2019-01-13T01:01:16.539Z,0
2019-01-13T01:02:16.522Z,0
2019-01-13T01:03:16.510Z,0
2019-01-13T01:04:16.498Z,0
2019-01-13T01:05:16.486Z,0
2019-01-13T01:06:16.475Z,0
2019-01-13T01:07:16.469Z,0
2019-01-13T01:08:16.450Z,0
2019-01-13T01:09:16.438Z,0
2019-01-13T01:10:16.428Z,0
2019-01-13T01:11:16.412Z,0
2019-01-13T01:12:16.401Z,0
2019-01-13T01:13:16.387Z,0
2019-01-13T01:14:16.382Z,0
2019-01-13T01:15:16.365Z,0
2019-01-13T01:16:16.366Z,0
2019-01-13T01:17:16.336Z,0
2019-01-13T01:18:16.331Z,0
2019-01-13T01:19:16.316Z,0
2019-01-13T01:20:16.300Z,0
2019-01-13T01:21:16.293Z,0
2019-01-13T01:22:16.278Z,0
2019-01-13T01:23:16.271Z,0
2019-01-13T01:24:16.252Z,0
2019-01-13T01:25:16.239Z,0
2019-01-13T01:26:16.231Z,0
2019-01-13T01:27:16.221Z,0
2019-01-13T01:28:16.200Z,0
2019-01-13T01:29:16.201Z,0
2019-01-13T01:30:16.181Z,0
2019-01-13T01:31:16.167Z,0
2019-01-13T01:32:16.156Z,0
2019-01-13T01:33:16.141Z,0
2019-01-13T01:34:16.129Z,0
2019-01-13T01:35:16.116Z,0
2019-01-13T01:36:16.104Z,0
2019-01-13T01:37:16.095Z,0
2019-01-13T01:38:16.083Z,0
2019-01-13T01:39:16.063Z,0
2019-01-13T01:40:16.056Z,0
2019-01-13T01:41:16.041Z,0
2019-01-13T01:42:16.036Z,0
2019-01-13T01:43:16.018Z,0
2019-01-13T01:44:16.002Z,0
2019-01-13T01:45:15.987Z,0
2019-01-13T01:46:15.986Z,0
2019-01-13T01:47:15.965Z,0
2019-01-13T01:48:15.953Z,0
2019-01-13T01:49:15.943Z,0
2019-01-13T01:50:15.928Z,0
2019-01-13T01:51:15.915Z,0
2019-01-13T01:52:15.660Z,0
2019-01-13T01:53:15.888Z,0
2019-01-13T01:54:15.880Z,0
2019-01-13T01:55:15.865Z,0
2019-01-13T01:56:15.854Z,0
2019-01-13T01:57:15.837Z,0
2019-01-13T01:58:15.824Z,0
2019-01-13T01:59:15.575Z,0
2019-01-13T02:00:15.806Z,0
2019-01-13T02:01:15.791Z,0
2019-01-13T02:02:15.829Z,0
2019-01-13T02:03:15.786Z,0
2019-01-13T02:04:15.835Z,0
2019-01-13T02:05:15.809Z,0
2019-01-13T02:06:15.765Z,0
2019-01-13T02:07:15.728Z,0
2019-01-13T02:08:15.545Z,0
2019-01-13T02:09:15.688Z,0
2019-01-13T02:10:15.680Z,0
2019-01-13T02:11:15.664Z,0
2019-01-13T02:12:15.653Z,0
2019-01-13T02:13:15.641Z,0
2019-01-13T02:14:15.628Z,0
2019-01-13T02:15:15.615Z,0
2019-01-13T02:16:15.602Z,0
2019-01-13T02:17:15.594Z,0
2019-01-13T02:18:15.588Z,0
2019-01-13T02:19:15.566Z,0
2019-01-13T02:20:15.546Z,0
2019-01-13T02:21:15.541Z,0
2019-01-13T02:22:15.523Z,0
2019-01-13T02:23:15.513Z,0
2019-01-13T02:24:15.258Z,0
2019-01-13T02:25:15.487Z,0
2019-01-13T02:26:15.475Z,0
2019-01-13T02:27:15.467Z,0
2019-01-13T02:28:15.222Z,0
2019-01-13T02:29:15.436Z,0
2019-01-13T02:30:15.446Z,0
2019-01-13T02:31:15.419Z,0
2019-01-13T02:32:15.414Z,0
2019-01-13T02:33:15.414Z,0
2019-01-13T02:34:15.408Z,0
2019-01-13T02:35:15.382Z,0
2019-01-13T02:36:15.365Z,0
2019-01-13T02:37:15.341Z,0
2019-01-13T02:38:15.322Z,0
2019-01-13T02:39:15.351Z,0
2019-01-13T02:40:15.306Z,0
2019-01-13T02:41:15.289Z,0
2019-01-13T02:42:15.289Z,0
2019-01-13T02:43:15.271Z,0
2019-01-13T02:44:15.254Z,0
2019-01-13T02:45:15.239Z,0
2019-01-13T02:46:15.234Z,0
2019-01-13T02:47:15.211Z,0
2019-01-13T02:48:14.962Z,0
2019-01-13T02:49:15.195Z,0
2019-01-13T02:50:15.185Z,0
2019-01-13T02:51:15.176Z,0
2019-01-13T02:52:15.156Z,0
2019-01-13T02:53:15.142Z,0
2019-01-13T02:54:15.183Z,0
2019-01-13T02:55:15.108Z,0
2019-01-13T02:56:15.111Z,0
2019-01-13T02:57:15.092Z,0
2019-01-13T02:58:15.075Z,0
2019-01-13T02:59:15.073Z,0
2019-01-13T03:00:15.061Z,0
2019-01-13T03:01:15.039Z,0
2019-01-13T03:02:15.494Z,0
2019-01-13T03:03:15.036Z,0
2019-01-13T03:04:15.006Z,0
2019-01-13T03:05:14.994Z,0
2019-01-13T03:06:14.976Z,0
2019-01-13T03:07:14.970Z,0
2019-01-13T03:08:14.959Z,0
2019-01-13T03:09:14.946Z,0
2019-01-13T03:10:14.926Z,0
2019-01-13T03:11:14.929Z,0
2019-01-13T03:12:14.910Z,0
2019-01-13T03:13:14.901Z,0
2019-01-13T03:14:14.885Z,0
2019-01-13T03:15:21.799Z,0
2019-01-13T03:16:14.857Z,0
2019-01-13T03:17:14.844Z,0
2019-01-13T03:18:14.831Z,0
2019-01-13T03:19:14.846Z,0
2019-01-13T03:20:14.812Z,0
2019-01-13T03:21:14.807Z,0
2019-01-13T03:22:14.786Z,0
2019-01-13T03:23:14.774Z,0
2019-01-13T03:24:14.819Z,0
2019-01-13T03:25:16.507Z,0
2019-01-13T03:26:14.731Z,0
2019-01-13T03:27:14.724Z,0
2019-01-13T03:28:14.713Z,0
2019-01-13T03:29:14.716Z,0
2019-01-13T03:30:14.703Z,0
2019-01-13T03:31:19.405Z,0
2019-01-13T03:32:14.676Z,0
2019-01-13T03:33:14.661Z,0
2019-01-13T03:34:14.635Z,0
2019-01-13T03:35:14.625Z,0
2019-01-13T03:36:14.606Z,0
2019-01-13T03:37:14.626Z,0
2019-01-13T03:38:14.593Z,0
2019-01-13T03:39:14.573Z,0
2019-01-13T03:40:14.559Z,0
2019-01-13T03:41:14.552Z,0
2019-01-13T03:42:14.538Z,0
2019-01-13T03:43:14.529Z,0
2019-01-13T03:44:14.514Z,0
2019-01-13T03:45:14.499Z,0
2019-01-13T03:46:14.486Z,0
2019-01-13T03:47:14.482Z,0
2019-01-13T03:48:14.461Z,0
2019-01-13T03:49:14.458Z,0
2019-01-13T03:50:14.443Z,0
2019-01-13T03:51:14.211Z,0
2019-01-13T03:52:14.418Z,0
2019-01-13T03:53:14.411Z,0
2019-01-13T03:54:14.387Z,0
2019-01-13T03:55:14.381Z,0
2019-01-13T03:56:14.377Z,0
2019-01-13T03:57:14.348Z,0
2019-01-13T03:58:16.009Z,0
2019-01-13T03:59:14.379Z,0
2019-01-13T04:00:14.317Z,0
2019-01-13T04:01:21.066Z,0
2019-01-13T04:02:14.296Z,0
2019-01-13T04:03:14.284Z,0
2019-01-13T04:04:14.265Z,0
2019-01-13T04:05:14.258Z,0
2019-01-13T04:06:14.251Z,0
2019-01-13T04:07:14.242Z,0
2019-01-13T04:08:14.212Z,0
2019-01-13T04:09:14.227Z,0
2019-01-13T04:10:14.192Z,0
2019-01-13T04:11:14.189Z,0
2019-01-13T04:12:14.165Z,0
2019-01-13T04:13:14.158Z,0
2019-01-13T04:14:14.142Z,0
2019-01-13T04:15:14.128Z,0
2019-01-13T04:16:14.123Z,0
2019-01-13T04:17:14.102Z,0
2019-01-13T04:18:14.094Z,0
2019-01-13T04:19:14.078Z,0
2019-01-13T04:20:14.065Z,0
2019-01-13T04:21:14.061Z,0
2019-01-13T04:22:14.046Z,0
2019-01-13T04:23:14.031Z,0
2019-01-13T04:24:14.013Z,0
2019-01-13T04:25:14.003Z,0
2019-01-13T04:26:13.993Z,0
2019-01-13T04:27:13.975Z,0
2019-01-13T04:28:13.967Z,0
2019-01-13T04:29:13.954Z,0
2019-01-13T04:30:13.946Z,0
2019-01-13T04:31:13.940Z,0
2019-01-13T04:32:13.993Z,0
2019-01-13T04:33:13.918Z,0
2019-01-13T04:34:13.901Z,0
2019-01-13T04:35:13.894Z,0
2019-01-13T04:36:13.868Z,0
2019-01-13T04:37:13.855Z,0
2019-01-13T04:38:13.842Z,0
2019-01-13T04:39:13.825Z,0
2019-01-13T04:40:13.837Z,0
2019-01-13T04:41:13.812Z,0
2019-01-13T04:42:13.800Z,0
2019-01-13T04:43:13.782Z,0
2019-01-13T04:44:13.769Z,0
2019-01-13T04:45:13.749Z,0
2019-01-13T04:46:13.745Z,0
2019-01-13T04:47:13.743Z,0
2019-01-13T04:48:13.739Z,0
2019-01-13T04:49:13.704Z,0
2019-01-13T04:50:13.692Z,0
2019-01-13T04:51:13.687Z,0
2019-01-13T04:52:13.665Z,0
2019-01-13T04:53:13.656Z,0
2019-01-13T04:54:13.644Z,0
2019-01-13T04:55:13.638Z,0
2019-01-13T04:56:13.625Z,0
2019-01-13T04:57:13.607Z,0
2019-01-13T04:58:13.645Z,0
2019-01-13T04:59:13.589Z,0
2019-01-13T05:00:13.568Z,0
2019-01-13T05:01:13.563Z,0
2019-01-13T05:02:13.549Z,0
2019-01-13T05:03:13.558Z,0
2019-01-13T05:04:13.521Z,0
2019-01-13T05:05:13.519Z,0
2019-01-13T05:06:13.499Z,0
2019-01-13T05:07:13.485Z,0
2019-01-13T05:08:13.571Z,0
2019-01-13T05:09:13.472Z,0
2019-01-13T05:10:13.440Z,0
2019-01-13T05:11:13.463Z,0
2019-01-13T05:12:13.421Z,0
2019-01-13T05:13:13.420Z,0
2019-01-13T05:14:13.395Z,0
2019-01-13T05:15:13.398Z,0
2019-01-13T05:16:13.371Z,0
2019-01-13T05:17:13.359Z,0
2019-01-13T05:18:13.351Z,0
2019-01-13T05:19:13.332Z,0
2019-01-13T05:20:13.323Z,0
2019-01-13T05:21:13.320Z,0
2019-01-13T05:22:13.305Z,0
2019-01-13T05:23:13.290Z,0
2019-01-13T05:24:13.285Z,0
2019-01-13T05:25:13.260Z,0
2019-01-13T05:26:13.244Z,0
2019-01-13T05:27:13.234Z,0
2019-01-13T05:28:13.225Z,0
2019-01-13T05:29:13.213Z,0
2019-01-13T05:30:13.209Z,0
2019-01-13T05:31:13.188Z,0
2019-01-13T05:32:13.174Z,0
2019-01-13T05:33:13.175Z,0
2019-01-13T05:34:13.151Z,0
2019-01-13T05:35:13.137Z,0
2019-01-13T05:36:13.125Z,0
2019-01-13T05:37:13.131Z,0
2019-01-13T05:38:13.100Z,0
2019-01-13T05:39:13.096Z,0
2019-01-13T05:40:13.076Z,0
2019-01-13T05:41:13.079Z,0
2019-01-13T05:42:13.052Z,0
2019-01-13T05:43:13.036Z,0
2019-01-13T05:44:13.033Z,0
2019-01-13T05:45:13.019Z,0
2019-01-13T05:46:12.771Z,0
2019-01-13T05:47:12.990Z,0
2019-01-13T05:48:12.979Z,0
2019-01-13T05:49:12.963Z,0
2019-01-13T05:50:12.947Z,0
2019-01-13T05:51:12.943Z,0
2019-01-13T05:52:12.926Z,0
2019-01-13T05:53:12.914Z,0
2019-01-13T05:54:12.906Z,0
2019-01-13T05:55:12.891Z,0
2019-01-13T05:56:12.877Z,0
2019-01-13T05:57:12.869Z,0
2019-01-13T05:58:12.861Z,0
2019-01-13T05:59:12.596Z,0
2019-01-13T06:00:12.827Z,0
2019-01-13T06:01:12.829Z,0
2019-01-13T06:02:12.802Z,0
2019-01-13T06:03:12.789Z,0
2019-01-13T06:04:12.778Z,0
2019-01-13T06:05:12.769Z,0
2019-01-13T06:06:12.755Z,0
2019-01-13T06:07:12.745Z,0
2019-01-13T06:08:12.734Z,0
2019-01-13T06:09:12.719Z,0
2019-01-13T06:10:12.705Z,0
2019-01-13T06:11:12.694Z,0
2019-01-13T06:12:12.677Z,0
2019-01-13T06:13:12.666Z,0
2019-01-13T06:14:12.652Z,0
2019-01-13T06:15:12.649Z,0
2019-01-13T06:16:12.631Z,0
2019-01-13T06:17:12.627Z,0
2019-01-13T06:18:12.607Z,0
2019-01-13T06:19:12.596Z,0
2019-01-13T06:20:12.577Z,0
2019-01-13T06:21:12.567Z,0
2019-01-13T06:22:12.575Z,0
2019-01-13T06:23:12.546Z,0
2019-01-13T06:24:14.110Z,0
2019-01-13T06:25:12.543Z,0
2019-01-13T06:26:12.509Z,0
2019-01-13T06:27:12.491Z,0
2019-01-13T06:28:12.481Z,0
2019-01-13T06:29:12.469Z,0
2019-01-13T06:30:13.732Z,0
2019-01-13T06:31:12.445Z,0
2019-01-13T06:32:12.436Z,0
2019-01-13T06:33:12.421Z,0
2019-01-13T06:34:12.410Z,0
2019-01-13T06:35:12.398Z,0
2019-01-13T06:36:12.398Z,0
2019-01-13T06:37:12.374Z,4
2019-01-13T06:38:13.443Z,4
2019-01-13T06:39:12.356Z,0
2019-01-13T06:40:12.337Z,0
2019-01-13T06:41:12.323Z,4
2019-01-13T06:42:12.321Z,4
2019-01-13T06:43:12.293Z,4
2019-01-13T06:44:12.281Z,4
2019-01-13T06:45:12.274Z,4
2019-01-13T06:46:12.262Z,4
2019-01-13T06:47:12.246Z,8
2019-01-13T06:48:12.269Z,8
2019-01-13T06:49:12.226Z,8
2019-01-13T06:50:12.213Z,12
2019-01-13T06:51:12.204Z,12
2019-01-13T06:52:12.189Z,12
2019-01-13T06:53:12.180Z,12
2019-01-13T06:54:12.161Z,16
2019-01-13T06:55:12.151Z,20
2019-01-13T06:56:12.150Z,20
2019-01-13T06:57:12.130Z,28
2019-01-13T06:58:12.126Z,32
2019-01-13T06:59:12.114Z,32
2019-01-13T07:00:12.099Z,36
2019-01-13T07:01:12.084Z,40
2019-01-13T07:02:12.069Z,44
2019-01-13T07:03:12.061Z,48
2019-01-13T07:04:12.044Z,56
2019-01-13T07:05:12.024Z,64
2019-01-13T07:06:12.019Z,64
2019-01-13T07:07:11.999Z,60
2019-01-13T07:08:11.991Z,72
2019-01-13T07:09:11.984Z,80
2019-01-13T07:10:11.972Z,84
2019-01-13T07:11:11.959Z,88
2019-01-13T07:12:11.946Z,100
2019-01-13T07:13:11.927Z,100
2019-01-13T07:14:11.915Z,96
2019-01-13T07:15:11.915Z,92
2019-01-13T07:16:11.898Z,104
2019-01-13T07:17:11.881Z,112
2019-01-13T07:18:11.871Z,120
2019-01-13T07:19:11.859Z,120
2019-01-13T07:20:11.843Z,144
2019-01-13T07:21:11.834Z,156
2019-01-13T07:22:11.827Z,144
2019-01-13T07:23:11.808Z,152
2019-01-13T07:24:11.794Z,192
2019-01-13T07:25:11.778Z,204
2019-01-13T07:26:11.770Z,152
2019-01-13T07:27:11.756Z,144
2019-01-13T07:28:11.746Z,168
2019-01-13T07:29:11.733Z,176
2019-01-13T07:30:11.724Z,208
2019-01-13T07:31:11.713Z,208
2019-01-13T07:32:17.646Z,220
2019-01-13T07:33:11.687Z,264
2019-01-13T07:34:11.676Z,328
2019-01-13T07:35:11.665Z,384
2019-01-13T07:36:11.648Z,432
2019-01-13T07:37:11.652Z,408
2019-01-13T07:38:11.626Z,440
2019-01-13T07:39:11.383Z,408
2019-01-13T07:40:11.599Z,460
2019-01-13T07:41:11.587Z,492
2019-01-13T07:42:11.576Z,540
2019-01-13T07:43:11.570Z,552
2019-01-13T07:44:11.549Z,552
2019-01-13T07:45:11.543Z,620
2019-01-13T07:46:11.539Z,688
2019-01-13T07:47:11.509Z,652
2019-01-13T07:48:11.506Z,640
2019-01-13T07:49:11.493Z,580
2019-01-13T07:50:11.483Z,584
2019-01-13T07:51:11.466Z,644
2019-01-13T07:52:11.455Z,724
2019-01-13T07:53:11.442Z,676
2019-01-13T07:54:11.430Z,672
2019-01-13T07:55:11.421Z,668
2019-01-13T07:56:11.419Z,644
2019-01-13T07:57:11.400Z,816
2019-01-13T07:58:11.136Z,936
2019-01-13T07:59:11.371Z,752
2019-01-13T08:00:11.358Z,676
2019-01-13T08:01:11.349Z,572
2019-01-13T08:02:17.657Z,548
2019-01-13T08:03:11.329Z,548
2019-01-13T08:04:11.311Z,580
2019-01-13T08:05:11.306Z,636
2019-01-13T08:06:11.296Z,744
2019-01-13T08:07:11.278Z,904
2019-01-13T08:08:11.281Z,740
2019-01-13T08:09:11.263Z,800
2019-01-13T08:10:11.244Z,868
2019-01-13T08:11:11.228Z,932
2019-01-13T08:12:11.221Z,908
2019-01-13T08:13:11.211Z,1016
2019-01-13T08:14:11.194Z,1088
2019-01-13T08:15:11.184Z,992
2019-01-13T08:16:11.175Z,1084
2019-01-13T08:17:11.156Z,1408
2019-01-13T08:18:11.155Z,1684
2019-01-13T08:19:11.148Z,1348
2019-01-13T08:20:11.126Z,1264
2019-01-13T08:21:11.117Z,1116
2019-01-13T08:22:11.102Z,1148
2019-01-13T08:23:11.091Z,1108
2019-01-13T08:24:11.076Z,996
2019-01-13T08:25:11.069Z,952
2019-01-13T08:26:11.053Z,1052
2019-01-13T08:27:11.041Z,916
2019-01-13T08:28:11.031Z,708
2019-01-13T08:29:11.017Z,800
2019-01-13T08:30:11.007Z,940
2019-01-13T08:31:11.001Z,724
2019-01-13T08:32:10.982Z,696
2019-01-13T08:33:10.976Z,716
2019-01-13T08:34:10.958Z,796
2019-01-13T08:35:10.950Z,952
2019-01-13T08:36:10.941Z,1060
2019-01-13T08:37:10.929Z,1060
2019-01-13T08:38:10.914Z,1344
2019-01-13T08:39:10.910Z,1388
2019-01-13T08:40:10.893Z,1200
2019-01-13T08:41:10.887Z,1508
2019-01-13T08:42:10.870Z,1456
2019-01-13T08:43:10.864Z,1868
2019-01-13T08:44:10.846Z,2032
2019-01-13T08:45:10.833Z,2268
2019-01-13T08:46:10.823Z,2100
2019-01-13T08:47:10.827Z,1748
2019-01-13T08:48:10.802Z,1712
2019-01-13T08:49:10.790Z,2076
2019-01-13T08:50:10.778Z,2196
2019-01-13T08:51:10.761Z,2348
2019-01-13T08:52:10.758Z,1944
2019-01-13T08:53:10.742Z,2172
2019-01-13T08:54:10.732Z,1960
2019-01-13T08:55:10.718Z,1916
2019-01-13T08:56:10.709Z,1656
2019-01-13T08:57:10.695Z,1580
2019-01-13T08:58:10.694Z,1524
2019-01-13T08:59:10.435Z,1520
2019-01-13T09:00:10.662Z,1496
2019-01-13T09:01:10.650Z,1740
2019-01-13T09:02:10.645Z,1444
2019-01-13T09:03:10.628Z,1432
2019-01-13T09:04:10.622Z,1624
2019-01-13T09:05:10.618Z,1636
2019-01-13T09:06:10.604Z,1856
2019-01-13T09:07:10.584Z,2092
2019-01-13T09:08:10.584Z,1836
2019-01-13T09:09:10.565Z,1828
2019-01-13T09:10:10.549Z,1788
2019-01-13T09:11:10.543Z,1528
2019-01-13T09:12:10.528Z,1508
2019-01-13T09:13:10.514Z,1564
2019-01-13T09:14:10.510Z,1792
2019-01-13T09:15:11.093Z,1724
2019-01-13T09:16:10.494Z,1788
2019-01-13T09:17:10.466Z,1748
2019-01-13T09:18:10.455Z,1772
2019-01-13T09:19:10.204Z,1752
2019-01-13T09:20:10.439Z,2036
2019-01-13T09:21:10.432Z,2100
2019-01-13T09:22:10.411Z,2760
2019-01-13T09:23:10.413Z,2300
2019-01-13T09:24:10.392Z,2212
2019-01-13T09:25:10.380Z,2212
2019-01-13T09:26:10.368Z,2028
2019-01-13T09:27:10.374Z,1760
2019-01-13T09:28:10.839Z,1760
2019-01-13T09:29:10.337Z,1836
2019-01-13T09:30:10.322Z,1708
2019-01-13T09:31:10.315Z,2024
2019-01-13T09:32:10.312Z,2148
2019-01-13T09:33:10.445Z,2112
2019-01-13T09:34:10.273Z,2120
2019-01-13T09:35:10.267Z,2312
2019-01-13T09:36:10.259Z,2256
2019-01-13T09:37:10.240Z,2740
2019-01-13T09:38:11.503Z,2180
2019-01-13T09:39:10.231Z,2252
2019-01-13T09:40:10.214Z,1960
2019-01-13T09:41:10.254Z,2072
2019-01-13T09:42:10.197Z,2476
2019-01-13T09:43:10.958Z,2172
2019-01-13T09:44:10.163Z,2216
2019-01-13T09:45:10.153Z,2240
2019-01-13T09:46:10.146Z,2064
2019-01-13T09:47:10.131Z,1940
2019-01-13T09:48:10.127Z,2448
2019-01-13T09:49:10.113Z,2264
2019-01-13T09:50:10.095Z,2124
2019-01-13T09:51:10.086Z,1984
2019-01-13T09:52:10.073Z,1936
2019-01-13T09:53:10.067Z,2300
2019-01-13T09:54:10.067Z,2636
2019-01-13T09:55:10.048Z,1936
2019-01-13T09:56:10.032Z,2272
2019-01-13T09:57:10.044Z,1936
2019-01-13T09:58:10.011Z,1968
2019-01-13T09:59:09.995Z,2388
2019-01-13T10:00:09.981Z,2616
2019-01-13T10:01:09.983Z,2460
2019-01-13T10:02:09.962Z,2496
2019-01-13T10:03:09.971Z,2592
2019-01-13T10:04:09.950Z,2516
2019-01-13T10:05:09.932Z,2344
2019-01-13T10:06:09.935Z,2012
2019-01-13T10:07:09.904Z,2016
2019-01-13T10:08:09.895Z,2468
2019-01-13T10:09:09.886Z,2088
2019-01-13T10:10:09.869Z,2488
2019-01-13T10:11:09.862Z,2824
2019-01-13T10:12:09.849Z,2892
2019-01-13T10:13:09.835Z,2240
2019-01-13T10:14:09.828Z,2108
2019-01-13T10:15:09.814Z,2304
2019-01-13T10:16:09.854Z,2484
2019-01-13T10:17:09.808Z,3220
2019-01-13T10:18:09.787Z,3004
2019-01-13T10:19:09.769Z,3440
2019-01-13T10:20:09.757Z,3604
2019-01-13T10:21:09.772Z,3464
2019-01-13T10:22:09.741Z,3844
2019-01-13T10:23:09.750Z,3420
2019-01-13T10:24:09.719Z,2736
2019-01-13T10:25:09.701Z,2484
2019-01-13T10:26:09.687Z,3256
2019-01-13T10:27:09.683Z,3876
2019-01-13T10:28:09.665Z,4092
2019-01-13T10:29:09.654Z,4316
2019-01-13T10:30:09.643Z,4056
2019-01-13T10:31:10.433Z,4152
2019-01-13T10:32:09.622Z,3284
2019-01-13T10:33:09.619Z,3628
2019-01-13T10:34:09.600Z,3516
2019-01-13T10:35:09.596Z,3636
2019-01-13T10:36:09.576Z,3580
2019-01-13T10:37:09.565Z,3044
2019-01-13T10:38:09.556Z,3132
2019-01-13T10:39:09.549Z,3748
2019-01-13T10:40:09.529Z,3280
2019-01-13T10:41:09.520Z,4828
2019-01-13T10:42:09.509Z,4360
2019-01-13T10:43:09.500Z,4168
2019-01-13T10:44:09.486Z,4920
2019-01-13T10:45:09.478Z,4600
2019-01-13T10:46:09.467Z,4100
2019-01-13T10:47:09.454Z,3708
2019-01-13T10:48:09.454Z,3616
2019-01-13T10:49:09.432Z,3516
2019-01-13T10:50:09.420Z,3144
2019-01-13T10:51:09.410Z,2840
2019-01-13T10:52:09.399Z,2880
2019-01-13T10:53:09.387Z,2864
2019-01-13T10:54:16.326Z,3332
2019-01-13T10:55:09.366Z,2832
2019-01-13T10:56:09.415Z,2428
2019-01-13T10:57:09.106Z,2672
2019-01-13T10:58:09.336Z,2808
2019-01-13T10:59:09.317Z,2712
2019-01-13T11:00:09.309Z,2864
2019-01-13T11:01:09.051Z,3820
2019-01-13T11:02:09.364Z,3800
2019-01-13T11:03:09.918Z,4120
2019-01-13T11:04:09.261Z,4240
2019-01-13T11:05:09.252Z,4824
2019-01-13T11:06:09.247Z,4356
2019-01-13T11:07:09.226Z,3956
2019-01-13T11:08:15.998Z,3316
2019-01-13T11:09:09.218Z,3300
2019-01-13T11:10:09.204Z,3472
2019-01-13T11:11:09.194Z,3808
2019-01-13T11:12:09.179Z,3636
2019-01-13T11:13:09.164Z,4716
2019-01-13T11:14:09.151Z,4216
2019-01-13T11:15:09.142Z,4196
2019-01-13T11:16:09.132Z,3484
2019-01-13T11:17:09.126Z,3336
2019-01-13T11:18:09.111Z,3064
2019-01-13T11:19:09.106Z,3036
2019-01-13T11:20:09.092Z,3088
2019-01-13T11:21:09.080Z,3088
2019-01-13T11:22:09.076Z,3172
2019-01-13T11:23:09.060Z,3652
2019-01-13T11:24:09.561Z,3248
2019-01-13T11:25:09.068Z,3376
2019-01-13T11:26:09.020Z,3392
2019-01-13T11:27:09.008Z,3664
2019-01-13T11:28:08.996Z,3636
2019-01-13T11:29:08.984Z,3012
2019-01-13T11:30:08.974Z,2652
2019-01-13T11:31:08.971Z,2132
2019-01-13T11:32:08.952Z,2360
2019-01-13T11:33:16.403Z,2972
2019-01-13T11:34:08.927Z,2852
2019-01-13T11:35:08.925Z,3280
2019-01-13T11:36:08.909Z,3704
2019-01-13T11:37:08.893Z,4716
2019-01-13T11:38:08.889Z,4808
2019-01-13T11:39:08.876Z,5088
2019-01-13T11:40:08.894Z,5716
2019-01-13T11:41:08.857Z,4424
2019-01-13T11:42:08.843Z,4152
2019-01-13T11:43:08.835Z,4416
2019-01-13T11:44:08.830Z,4704
2019-01-13T11:45:08.806Z,4040
2019-01-13T11:46:08.800Z,3592
2019-01-13T11:47:08.783Z,3920
2019-01-13T11:48:08.795Z,4236
2019-01-13T11:49:08.763Z,3592
2019-01-13T11:50:08.780Z,3932
2019-01-13T11:51:08.751Z,3276
2019-01-13T11:52:08.730Z,2920
2019-01-13T11:53:08.715Z,2936
2019-01-13T11:54:08.709Z,2860
2019-01-13T11:55:08.691Z,2608
2019-01-13T11:56:08.693Z,2972
2019-01-13T11:57:08.675Z,3184
2019-01-13T11:58:08.665Z,3076
2019-01-13T11:59:08.650Z,3236
2019-01-13T12:00:08.406Z,3932
2019-01-13T12:01:08.627Z,3512
2019-01-13T12:02:08.619Z,4000
2019-01-13T12:03:21.466Z,4232
2019-01-13T12:04:08.605Z,3488
2019-01-13T12:05:09.285Z,3736
2019-01-13T12:06:08.584Z,3044
2019-01-13T12:07:08.563Z,2956
2019-01-13T12:08:08.546Z,2896
2019-01-13T12:09:08.536Z,2540
2019-01-13T12:10:08.522Z,2604
2019-01-13T12:11:08.516Z,2636
2019-01-13T12:12:08.510Z,3436
2019-01-13T12:13:08.496Z,3900
2019-01-13T12:14:08.242Z,3240
2019-01-13T12:15:08.474Z,2504
2019-01-13T12:16:08.476Z,2620
2019-01-13T12:17:08.453Z,2620
2019-01-13T12:18:08.432Z,2072
2019-01-13T12:19:08.431Z,1844
2019-01-13T12:20:08.429Z,2044
2019-01-13T12:21:08.401Z,1500
2019-01-13T12:22:08.394Z,1340
2019-01-13T12:23:08.390Z,1648
2019-01-13T12:24:08.372Z,2156
2019-01-13T12:25:08.356Z,2508
2019-01-13T12:26:08.346Z,3072
2019-01-13T12:27:08.331Z,2588
2019-01-13T12:28:08.319Z,2396
2019-01-13T12:29:08.304Z,2208
2019-01-13T12:30:08.313Z,2000
2019-01-13T12:31:08.288Z,1876
2019-01-13T12:32:08.279Z,1956
2019-01-13T12:33:08.274Z,1784
2019-01-13T12:34:08.251Z,2056
2019-01-13T12:35:08.236Z,2208
2019-01-13T12:36:08.231Z,2380
2019-01-13T12:37:08.523Z,2136
2019-01-13T12:38:08.207Z,2024
2019-01-13T12:39:08.198Z,2480
2019-01-13T12:40:08.190Z,2424
2019-01-13T12:41:08.175Z,2060
2019-01-13T12:42:07.925Z,1920
2019-01-13T12:43:08.147Z,2208
2019-01-13T12:44:08.265Z,2052
2019-01-13T12:45:08.122Z,2560
2019-01-13T12:46:08.114Z,2496
2019-01-13T12:47:08.103Z,2576
2019-01-13T12:48:08.096Z,2408
2019-01-13T12:49:08.083Z,2768
2019-01-13T12:50:08.077Z,2344
2019-01-13T12:51:08.057Z,2196
2019-01-13T12:52:07.806Z,2192
2019-01-13T12:53:08.038Z,2216
2019-01-13T12:54:08.023Z,2056
2019-01-13T12:55:08.017Z,2244
2019-01-13T12:56:07.751Z,1968
2019-01-13T12:57:07.986Z,2192
2019-01-13T12:58:07.732Z,2712
2019-01-13T12:59:07.965Z,2508
2019-01-13T13:00:07.947Z,2576
2019-01-13T13:01:07.936Z,2372
2019-01-13T13:02:07.929Z,2792
2019-01-13T13:03:07.925Z,2004
2019-01-13T13:04:07.903Z,2424
2019-01-13T13:05:07.898Z,2156
2019-01-13T13:06:07.877Z,2072
2019-01-13T13:07:07.870Z,2180
2019-01-13T13:08:07.862Z,1928
2019-01-13T13:09:07.844Z,1880
2019-01-13T13:10:07.840Z,1992
2019-01-13T13:11:07.825Z,1928
2019-01-13T13:12:07.809Z,1812
2019-01-13T13:13:07.796Z,1664
2019-01-13T13:14:07.797Z,1592
2019-01-13T13:15:07.791Z,1412
2019-01-13T13:16:07.767Z,1204
2019-01-13T13:17:07.750Z,1056
2019-01-13T13:18:07.748Z,1116
2019-01-13T13:19:07.727Z,992
2019-01-13T13:20:07.720Z,1060
2019-01-13T13:21:07.709Z,948
2019-01-13T13:22:07.692Z,840
2019-01-13T13:23:09.114Z,804
2019-01-13T13:24:07.674Z,768
2019-01-13T13:25:07.666Z,716
2019-01-13T13:26:07.647Z,748
2019-01-13T13:27:07.632Z,780
2019-01-13T13:28:07.629Z,836
2019-01-13T13:29:07.611Z,892
2019-01-13T13:30:07.600Z,848
2019-01-13T13:31:07.591Z,860
2019-01-13T13:32:07.583Z,748
2019-01-13T13:33:07.562Z,712
2019-01-13T13:34:07.548Z,628
2019-01-13T13:35:07.545Z,544
2019-01-13T13:36:07.531Z,524
2019-01-13T13:37:07.520Z,460
2019-01-13T13:38:07.268Z,432
2019-01-13T13:39:07.494Z,472
2019-01-13T13:40:07.486Z,444
2019-01-13T13:41:07.478Z,456
2019-01-13T13:42:07.461Z,396
2019-01-13T13:43:07.448Z,416
2019-01-13T13:44:07.439Z,468
2019-01-13T13:45:07.425Z,552
2019-01-13T13:46:07.463Z,520
2019-01-13T13:47:07.404Z,568
2019-01-13T13:48:07.416Z,636
2019-01-13T13:49:07.374Z,672
2019-01-13T13:50:07.361Z,812
2019-01-13T13:51:07.350Z,776
2019-01-13T13:52:07.343Z,828
2019-01-13T13:53:07.325Z,712
2019-01-13T13:54:07.314Z,664
2019-01-13T13:55:07.307Z,800
2019-01-13T13:56:07.291Z,812
2019-01-13T13:57:07.278Z,772
2019-01-13T13:58:07.273Z,780
2019-01-13T13:59:07.265Z,748
2019-01-13T14:00:07.247Z,772
2019-01-13T14:01:07.234Z,876
2019-01-13T14:02:07.219Z,992
2019-01-13T14:03:07.210Z,1124
2019-01-13T14:04:07.196Z,868